Time;durP1;ratioP1;P1;durP2;ratioP2;P2;SDS_P1;SDS_P2;PMS_P1;PMS_P2;Temp;Humidity;BMP_temperature;BMP_pressure;BME280_temperature;BME280_humidity;BME280_pressure;Samples;Min_cycle;Max_cycle;Signal;HPM_P1;HPM_P2
2023/04/17 00:00:49;;;;;;;;;8.33;8.33;;;;;-150.52;100.00;63513.88;2020754;28;2741963;-76
2023/04/17 00:02:02;;;;;;;;;9.00;6.83;;;;;-150.52;100.00;63513.88;2042314;28;2741912;-75
2023/04/17 00:03:15;;;;;;;;;8.33;6.33;;;;;-150.52;100.00;63513.88;2003052;28;2742997;-75
2023/04/17 00:04:29;;;;;;;;;8.50;8.33;;;;;-150.52;100.00;63513.88;2051897;27;2746118;-75
2023/04/17 00:05:45;;;;;;;;;8.00;6.67;;;;;-150.52;100.00;63513.88;2044293;27;2747141;-76
2023/04/17 00:06:58;;;;;;;;;6.83;6.00;;;;;-150.52;100.00;63513.88;2050302;28;2739860;-76
2023/04/17 00:08:11;;;;;;;;;6.50;6.50;;;;;-150.52;100.00;63513.88;2049862;28;2733606;-75
2023/04/17 00:09:25;;;;;;;;;6.33;6.33;;;;;-150.52;100.00;63513.88;2053577;27;2734640;-75
2023/04/17 00:10:38;;;;;;;;;5.17;5.17;;;;;-150.52;100.00;63513.88;2028974;27;2737801;-76
2023/04/17 00:11:51;;;;;;;;;5.67;5.67;;;;;-150.52;100.00;63513.88;2052438;28;2737766;-75
2023/04/17 00:13:04;;;;;;;;;7.67;6.67;;;;;-150.52;100.00;63513.88;2023256;28;2726307;-75
2023/04/17 00:14:17;;;;;;;;;8.33;6.67;;;;;-150.52;100.00;63513.88;2052013;27;2735686;-75
2023/04/17 00:15:28;;;;;;;;;10.33;7.33;;;;;-150.52;100.00;63513.88;2001536;28;2756077;-75
2023/04/17 00:16:40;;;;;;;;;6.75;6.75;;;;;-150.52;100.00;63513.88;2048387;28;2725259;-75
2023/04/17 00:17:53;;;;;;;;;9.17;6.67;;;;;-150.52;100.00;63513.88;2046004;28;2729916;-75
2023/04/17 00:19:06;;;;;;;;;6.33;6.33;;;;;-150.52;100.00;63513.88;2027834;27;2733615;-76
2023/04/17 00:20:19;;;;;;;;;6.17;6.17;;;;;-150.52;100.00;63513.88;2021387;28;2740946;-75
2023/04/17 00:21:33;;;;;;;;;7.67;5.33;;;;;-150.52;100.00;63513.88;2051660;27;2731519;-75
2023/04/17 00:22:46;;;;;;;;;7.50;5.67;;;;;-150.52;100.00;63513.88;2044971;28;2730540;-75
2023/04/17 00:23:59;;;;;;;;;9.33;6.67;;;;;-150.52;100.00;63513.88;2027200;27;2735675;-75
2023/04/17 00:25:13;;;;;;;;;6.17;6.17;;;;;-150.52;100.00;63513.88;2025240;28;2735666;-75
2023/04/17 00:26:27;;;;;;;;;7.67;6.83;;;;;-150.52;100.00;63513.88;2052323;28;2741928;-75
2023/04/17 00:27:41;;;;;;;;;5.83;5.83;;;;;-150.52;100.00;63513.88;2048944;27;2734658;-75
2023/04/17 00:28:55;;;;;;;;;6.00;5.67;;;;;-150.52;100.00;63513.88;2044206;28;2736747;-75
2023/04/17 00:30:08;;;;;;;;;8.83;7.50;;;;;-150.52;100.00;63513.88;2030113;27;2732573;-75
2023/04/17 00:31:19;;;;;;;;;8.00;6.67;;;;;-150.52;100.00;63513.88;2025449;28;3442306;-75
2023/04/17 00:32:30;;;;;;;;;9.67;7.00;;;;;-150.52;100.00;63513.88;2027070;28;2755478;-75
2023/04/17 00:33:41;;;;;;;;;8.25;7.50;;;;;-150.52;100.00;63513.88;2043882;28;2744014;-75
2023/04/17 00:34:55;;;;;;;;;6.33;6.33;;;;;-150.52;100.00;63513.88;2056033;27;2732552;-75
2023/04/17 00:36:08;;;;;;;;;8.83;6.67;;;;;-150.52;100.00;63513.88;2057540;27;2749234;-75
2023/04/17 00:37:21;;;;;;;;;5.67;5.67;;;;;-150.52;100.00;63513.88;2029191;27;2752363;-76
2023/04/17 00:38:35;;;;;;;;;6.33;6.33;;;;;-150.52;100.00;63513.88;2026460;27;2734660;-75
2023/04/17 00:39:48;;;;;;;;;7.67;7.17;;;;;-150.52;100.00;63513.88;2051880;27;2739865;-75
2023/04/17 00:40:58;;;;;;;;;13.33;11.33;;;;;-150.52;100.00;63513.88;2032229;27;3525237;-75
2023/04/17 00:42:10;;;;;;;;;8.67;8.67;;;;;-150.52;100.00;63513.88;2055724;28;1834634;-75
2023/04/17 00:43:20;;;;;;;;;11.00;10.67;;;;;-150.52;100.00;63513.88;2002465;27;3511692;-75
2023/04/17 00:44:31;;;;;;;;;11.00;10.00;;;;;-150.52;100.00;63513.88;2049220;27;2784635;-75
2023/04/17 00:45:46;;;;;;;;;12.25;11.50;;;;;-150.52;100.00;63513.88;2060884;27;1842026;-75
2023/04/17 00:46:59;;;;;;;;;6.67;6.67;;;;;-150.52;100.00;63513.88;2061254;27;2731557;-75
2023/04/17 00:48:12;;;;;;;;;12.00;9.00;;;;;-150.52;100.00;63513.88;2032421;27;3493458;-75
2023/04/17 00:49:23;;;;;;;;;9.00;9.00;;;;;-150.52;100.00;63513.88;2048491;27;1823194;-75
2023/04/17 00:50:35;;;;;;;;;11.67;9.00;;;;;-150.52;100.00;63513.88;2001808;28;3490872;-75
2023/04/17 00:51:49;;;;;;;;;8.00;8.00;;;;;-150.52;100.00;63513.88;2053273;27;2746107;-75
2023/04/17 00:53:00;;;;;;;;;13.00;11.50;;;;;-150.52;100.00;63513.88;2031541;27;2796149;-75
2023/04/17 00:54:12;;;;;;;;;14.75;9.75;;;;;-150.52;100.00;63513.88;2045151;27;1841959;-75
2023/04/17 00:55:23;;;;;;;;;12.00;12.00;;;;;-150.52;100.00;63513.88;2031593;27;2796104;-75
2023/04/17 00:56:34;;;;;;;;;12.75;10.25;;;;;-150.52;100.00;63513.88;2022883;27;1842453;-75
2023/04/17 00:57:49;;;;;;;;;11.67;11.33;;;;;-150.52;100.00;63513.88;2022814;27;2804406;-75
2023/04/17 00:59:02;;;;;;;;;12.00;12.00;;;;;-150.52;100.00;63513.88;2023533;27;2789810;-75
2023/04/17 01:00:13;;;;;;;;;11.00;10.00;;;;;-150.52;100.00;63513.88;2007747;27;2793989;-75
2023/04/17 01:01:24;;;;;;;;;13.00;11.50;;;;;-150.52;100.00;63513.88;2018869;27;2790913;-75
2023/04/17 01:02:35;;;;;;;;;13.00;12.00;;;;;-150.52;100.00;63513.88;2050762;27;2807530;-75
2023/04/17 01:03:49;;;;;;;;;12.20;12.20;;;;;-150.52;100.00;63513.88;2063665;27;1823272;-75
2023/04/17 01:05:01;;;;;;;;;11.00;10.50;;;;;-150.52;100.00;63513.88;2046489;27;1838816;-75
2023/04/17 01:06:12;;;;;;;;;11.67;11.00;;;;;-150.52;100.00;63513.88;2047610;27;1836781;-76
2023/04/17 01:07:23;;;;;;;;;13.50;13.50;;;;;-150.52;100.00;63513.88;2016409;28;2792996;-75
2023/04/17 01:08:42;;;;;;;;;11.33;9.67;;;;;-150.52;100.00;63513.88;1999453;28;3500233;-75
2023/04/17 01:09:53;;;;;;;;;12.00;11.00;;;;;-150.52;100.00;63513.88;2023863;27;3515879;-75
2023/04/17 01:11:03;;;;;;;;;14.33;12.00;;;;;-150.52;100.00;63513.88;2016367;28;3512742;-75
2023/04/17 01:12:19;;;;;;;;;13.50;11.00;;;;;-150.52;100.00;63513.88;2051702;28;1850377;-75
2023/04/17 01:13:29;;;;;;;;;11.00;11.00;;;;;-150.52;100.00;63513.88;2021395;27;3511672;-75
2023/04/17 01:14:40;;;;;;;;;12.00;11.00;;;;;-150.52;100.00;63513.88;2047804;27;2787788;-75
2023/04/17 01:15:51;;;;;;;;;13.00;12.00;;;;;-150.52;100.00;63513.88;2041315;28;2807598;-75
2023/04/17 01:17:04;;;;;;;;;10.00;10.00;;;;;-150.52;100.00;63513.88;2032849;27;1835743;-75
2023/04/17 01:18:15;;;;;;;;;9.00;9.00;;;;;-150.52;100.00;63513.88;2032999;27;2751303;-75
2023/04/17 01:19:28;;;;;;;;;12.80;10.60;;;;;-150.52;100.00;63513.88;2055682;27;1819591;-75
2023/04/17 01:20:39;;;;;;;;;13.50;10.50;;;;;-150.52;100.00;63513.88;2024712;27;2791946;-75
2023/04/17 01:21:51;;;;;;;;;11.50;11.00;;;;;-150.52;100.00;63513.88;2049819;27;1834699;-75
2023/04/17 01:23:02;;;;;;;;;12.00;11.50;;;;;-150.52;100.00;63513.88;2039506;27;1841978;-76
2023/04/17 01:24:13;;;;;;;;;12.00;11.50;;;;;-150.52;100.00;63513.88;2022570;28;2785715;-75
2023/04/17 01:25:25;;;;;;;;;11.25;10.50;;;;;-150.52;100.00;63513.88;2027369;27;1839913;-75
2023/04/17 01:26:37;;;;;;;;;13.50;10.00;;;;;-150.52;100.00;63513.88;2033371;28;1848242;-75
2023/04/17 01:27:48;;;;;;;;;10.50;9.75;;;;;-150.52;100.00;63513.88;2035169;27;1827389;-75
2023/04/17 01:29:03;;;;;;;;;9.50;9.50;;;;;-150.52;100.00;63513.88;2052052;27;2739805;-75
2023/04/17 01:30:14;;;;;;;;;12.00;12.00;;;;;-150.52;100.00;63513.88;2015964;27;1840918;-75
2023/04/17 01:31:28;;;;;;;;;12.00;12.00;;;;;-150.52;100.00;63513.88;2025507;27;3529384;-75
2023/04/17 01:32:42;;;;;;;;;10.50;8.83;;;;;-150.52;100.00;63513.88;2028441;27;2755456;-75
2023/04/17 01:33:52;;;;;;;;;7.67;7.67;;;;;-150.52;100.00;63513.88;2000771;28;2737787;-75
2023/04/17 01:35:03;;;;;;;;;9.67;9.67;;;;;-150.52;100.00;63513.88;2041301;27;3488785;-75
2023/04/17 01:36:15;;;;;;;;;9.50;9.00;;;;;-150.52;100.00;63513.88;2038649;27;2754455;-75
2023/04/17 01:37:26;;;;;;;;;9.33;8.67;;;;;-150.52;100.00;63513.88;2033222;27;2752415;-75
2023/04/17 01:38:39;;;;;;;;;9.67;6.33;;;;;-150.52;100.00;63513.88;2060601;27;2747152;-75
2023/04/17 01:39:49;;;;;;;;;11.33;8.67;;;;;-150.52;100.00;63513.88;2032949;27;2763902;-75
2023/04/17 01:41:08;;;;;;;;;13.00;10.00;;;;;-150.52;100.00;63513.88;2049784;27;2782579;-75
2023/04/17 01:42:18;;;;;;;;;11.00;8.67;;;;;-150.52;100.00;63513.88;2024480;28;2759729;-75
2023/04/17 01:43:29;;;;;;;;;11.00;10.00;;;;;-150.52;100.00;63513.88;2043532;27;3502321;-75
2023/04/17 01:44:40;;;;;;;;;6.00;6.00;;;;;-150.52;100.00;63513.88;2049099;28;2743328;-75
2023/04/17 01:45:51;;;;;;;;;10.67;9.00;;;;;-150.52;100.00;63513.88;2002753;27;3492931;-75
2023/04/17 01:47:02;;;;;;;;;12.33;12.00;;;;;-150.52;100.00;63513.88;2048115;27;3505459;-75
2023/04/17 01:48:13;;;;;;;;;11.33;10.00;;;;;-150.52;100.00;63513.88;2047210;27;3509645;-75
2023/04/17 01:49:25;;;;;;;;;8.67;8.00;;;;;-150.52;100.00;63513.88;2048020;27;2746205;-75
2023/04/17 01:50:38;;;;;;;;;9.00;7.50;;;;;-150.52;100.00;63513.88;2051538;28;2746103;-75
2023/04/17 01:51:48;;;;;;;;;9.67;9.67;;;;;-150.52;100.00;63513.88;2006467;27;2769093;-75
2023/04/17 01:52:59;;;;;;;;;10.33;8.33;;;;;-150.52;100.00;63513.88;2037863;27;3485655;-75
2023/04/17 01:54:10;;;;;;;;;12.00;9.33;;;;;-150.52;100.00;63513.88;2042971;27;3500295;-75
2023/04/17 01:55:22;;;;;;;;;10.75;8.75;;;;;-150.52;100.00;63513.88;2051931;27;1821134;-75
2023/04/17 01:56:32;;;;;;;;;13.00;10.00;;;;;-150.52;100.00;63513.88;2021246;27;3515871;-75
2023/04/17 01:57:43;;;;;;;;;8.33;7.33;;;;;-150.52;100.00;63513.88;2045896;27;2746112;-75
2023/04/17 01:58:54;;;;;;;;;11.00;9.00;;;;;-150.52;100.00;63513.88;2048480;27;2766943;-75
2023/04/17 02:00:07;;;;;;;;;7.25;7.25;;;;;-150.52;100.00;63513.88;2056036;27;2741955;-75
2023/04/17 02:01:20;;;;;;;;;8.50;8.50;;;;;-150.52;100.00;63513.88;2052633;27;2742345;-75
2023/04/17 02:02:31;;;;;;;;;10.00;9.00;;;;;-150.52;100.00;63513.88;2022526;27;1824296;-75
2023/04/17 02:03:41;;;;;;;;;8.00;8.00;;;;;-150.52;100.00;63513.88;2033840;27;2739180;-75
2023/04/17 02:04:52;;;;;;;;;12.00;8.33;;;;;-150.52;100.00;63513.88;2042781;28;3485648;-75
2023/04/17 02:06:04;;;;;;;;;9.00;9.00;;;;;-150.52;100.00;63513.88;2038103;28;2745060;-75
2023/04/17 02:07:15;;;;;;;;;9.67;9.67;;;;;-150.52;100.00;63513.88;2024188;28;2771198;-75
2023/04/17 02:08:26;;;;;;;;;12.00;8.00;;;;;-150.52;100.00;63513.88;2024605;27;3491926;-75
2023/04/17 02:09:36;;;;;;;;;11.67;10.33;;;;;-150.52;100.00;63513.88;2043230;27;3513863;-75
2023/04/17 02:10:47;;;;;;;;;10.00;8.33;;;;;-150.52;100.00;63513.88;2047524;27;3475334;-76
2023/04/17 02:11:58;;;;;;;;;12.00;10.33;;;;;-150.52;100.00;63513.88;2044729;27;3507533;-75
2023/04/17 02:13:10;;;;;;;;;11.00;9.00;;;;;-150.52;100.00;63513.88;2033449;28;3483600;-75
2023/04/17 02:14:23;;;;;;;;;8.80;8.00;;;;;-150.52;100.00;63513.88;2043482;28;2736730;-75
2023/04/17 02:15:34;;;;;;;;;13.33;12.00;;;;;-150.52;100.00;63513.88;2001224;27;3498182;-75
2023/04/17 02:16:45;;;;;;;;;13.00;9.50;;;;;-150.52;100.00;63513.88;2046952;27;1835740;-75
2023/04/17 02:17:59;;;;;;;;;7.50;6.50;;;;;-150.52;100.00;63513.88;2050856;28;2733623;-75
2023/04/17 02:19:12;;;;;;;;;9.33;9.00;;;;;-150.52;100.00;63513.88;2043184;28;2742958;-75
2023/04/17 02:20:23;;;;;;;;;15.25;11.50;;;;;-150.52;100.00;63513.88;2009490;28;1847113;-75
2023/04/17 02:21:34;;;;;;;;;10.67;10.00;;;;;-150.52;100.00;63513.88;2028991;27;3513795;-75
2023/04/17 02:22:45;;;;;;;;;13.00;11.00;;;;;-150.52;100.00;63513.88;2048542;27;3515986;-75
2023/04/17 02:23:56;;;;;;;;;9.00;9.00;;;;;-150.52;100.00;63513.88;2055210;27;2741960;-75
2023/04/17 02:25:09;;;;;;;;;8.50;7.83;;;;;-150.52;100.00;63513.88;2035617;27;2746125;-75
2023/04/17 02:26:20;;;;;;;;;18.00;13.00;;;;;-150.52;100.00;63513.88;2007210;27;2796104;-75
2023/04/17 02:27:31;;;;;;;;;11.50;11.25;;;;;-150.52;100.00;63513.88;2013247;27;1834178;-75
2023/04/17 02:28:43;;;;;;;;;11.00;10.50;;;;;-150.52;100.00;63513.88;2029931;27;2784598;-75
2023/04/17 02:29:55;;;;;;;;;13.67;11.33;;;;;-150.52;100.00;63513.88;2003301;27;3510065;-75
2023/04/17 02:31:07;;;;;;;;;14.67;10.67;;;;;-150.52;100.00;63513.88;2008726;27;3508591;-75
2023/04/17 02:32:17;;;;;;;;;13.33;11.67;;;;;-150.52;100.00;63513.88;2033344;27;3517978;-75
2023/04/17 02:33:28;;;;;;;;;14.00;11.67;;;;;-150.52;100.00;63513.88;2040875;28;3504428;-75
2023/04/17 02:34:40;;;;;;;;;13.50;10.00;;;;;-150.52;100.00;63513.88;2052036;28;1846156;-75
2023/04/17 02:35:51;;;;;;;;;10.75;10.00;;;;;-150.52;100.00;63513.88;2040230;27;1846141;-75
2023/04/17 02:37:02;;;;;;;;;10.00;10.00;;;;;-150.52;100.00;63513.88;2031825;27;2773565;-75
2023/04/17 02:38:13;;;;;;;;;12.50;10.00;;;;;-150.52;100.00;63513.88;2052307;27;2788812;-75
2023/04/17 02:39:26;;;;;;;;;12.50;12.00;;;;;-150.52;100.00;63513.88;2052876;28;1846154;-75
2023/04/17 02:40:36;;;;;;;;;10.33;8.67;;;;;-150.52;100.00;63513.88;2024254;27;2771165;-75
2023/04/17 02:41:47;;;;;;;;;10.33;10.33;;;;;-150.52;100.00;63513.88;2050497;27;2767321;-75
2023/04/17 02:42:58;;;;;;;;;11.00;11.00;;;;;-150.52;100.00;63513.88;2048862;27;2791970;-75
2023/04/17 02:44:09;;;;;;;;;11.00;9.75;;;;;-150.52;100.00;63513.88;2056751;27;2792974;-76
2023/04/17 02:45:20;;;;;;;;;10.50;9.50;;;;;-150.52;100.00;63513.88;2015745;28;2780420;-75
2023/04/17 02:46:31;;;;;;;;;11.00;11.00;;;;;-150.52;100.00;63513.88;2038316;27;2785007;-75
2023/04/17 02:47:43;;;;;;;;;12.00;9.75;;;;;-150.52;100.00;63513.88;2054855;28;1835706;-75
2023/04/17 02:48:53;;;;;;;;;17.00;12.00;;;;;-150.52;100.00;63513.88;2031251;27;2822097;-75
2023/04/17 02:50:05;;;;;;;;;12.00;11.00;;;;;-150.52;100.00;63513.88;2024183;27;2788263;-75
2023/04/17 02:51:15;;;;;;;;;9.67;9.33;;;;;-150.52;100.00;63513.88;2034279;27;2754794;-75
2023/04/17 02:52:28;;;;;;;;;15.00;11.00;;;;;-150.52;100.00;63513.88;2041761;28;2788267;-75
2023/04/17 02:53:38;;;;;;;;;9.33;8.00;;;;;-150.52;100.00;63513.88;2020010;28;2744079;-75
2023/04/17 02:54:49;;;;;;;;;10.00;9.00;;;;;-150.52;100.00;63513.88;2044322;27;3473159;-75
2023/04/17 02:56:00;;;;;;;;;13.50;12.00;;;;;-150.52;100.00;63513.88;2050073;27;2813557;-75
2023/04/17 02:57:11;;;;;;;;;12.00;12.00;;;;;-150.52;100.00;63513.88;2018338;27;2781494;-75
2023/04/17 02:58:22;;;;;;;;;13.00;13.00;;;;;-150.52;100.00;63513.88;2033466;28;2794029;-75
2023/04/17 02:59:33;;;;;;;;;11.33;11.33;;;;;-150.52;100.00;63513.88;2032194;28;3511769;-75
2023/04/17 03:00:44;;;;;;;;;12.50;11.50;;;;;-150.52;100.00;63513.88;2043059;27;2791998;-75
2023/04/17 03:01:58;;;;;;;;;9.67;7.67;;;;;-150.52;100.00;63513.88;2044750;27;3468974;-75
2023/04/17 03:03:08;;;;;;;;;12.00;12.00;;;;;-150.52;100.00;63513.88;2017718;28;2797106;-75
2023/04/17 03:04:20;;;;;;;;;16.00;14.00;;;;;-150.52;100.00;63513.88;2030015;27;1833607;-75
2023/04/17 03:05:31;;;;;;;;;15.00;14.00;;;;;-150.52;100.00;63513.88;2000910;28;2808587;-75
2023/04/17 03:06:43;;;;;;;;;10.50;10.50;;;;;-150.52;100.00;63513.88;2030360;27;1837778;-75
2023/04/17 03:07:54;;;;;;;;;11.00;9.50;;;;;-150.52;100.00;63513.88;2044836;27;1834660;-75
2023/04/17 03:09:05;;;;;;;;;11.00;9.00;;;;;-150.52;100.00;63513.88;2032161;27;3487719;-75
2023/04/17 03:10:16;;;;;;;;;11.00;11.00;;;;;-150.52;100.00;63513.88;2038375;28;2789862;-75
2023/04/17 03:11:27;;;;;;;;;13.00;10.00;;;;;-150.52;100.00;63513.88;2034391;27;2785760;-75
2023/04/17 03:12:39;;;;;;;;;13.00;11.25;;;;;-150.52;100.00;63513.88;2059237;27;1848150;-75
2023/04/17 03:13:49;;;;;;;;;11.50;10.50;;;;;-150.52;100.00;63513.88;2023039;28;2789839;-75
2023/04/17 03:15:01;;;;;;;;;13.00;11.00;;;;;-150.52;100.00;63513.88;2057601;27;1842023;-75
2023/04/17 03:16:11;;;;;;;;;14.50;13.00;;;;;-150.52;100.00;63513.88;2009914;27;2791913;-75
2023/04/17 03:17:22;;;;;;;;;12.00;11.00;;;;;-150.52;100.00;63513.88;2051532;27;2788801;-75
2023/04/17 03:18:34;;;;;;;;;12.50;12.50;;;;;-150.52;100.00;63513.88;2063029;27;1819086;-75
2023/04/17 03:19:45;;;;;;;;;14.00;13.00;;;;;-150.52;100.00;63513.88;2008123;27;2792991;-76
2023/04/17 03:20:57;;;;;;;;;15.50;14.00;;;;;-150.52;100.00;63513.88;2018660;28;2813835;-75
2023/04/17 03:22:07;;;;;;;;;16.00;14.00;;;;;-150.52;100.00;63513.88;2015298;28;2812794;-75
2023/04/17 03:23:18;;;;;;;;;11.00;11.00;;;;;-150.52;100.00;63513.88;2040190;27;2787759;-75
2023/04/17 03:24:30;;;;;;;;;12.00;12.00;;;;;-150.52;100.00;63513.88;2050538;27;2798183;-75
2023/04/17 03:25:41;;;;;;;;;16.25;14.25;;;;;-150.52;100.00;63513.88;2020614;27;1842031;-75
2023/04/17 03:26:52;;;;;;;;;11.00;11.00;;;;;-150.52;100.00;63513.88;2038959;28;2793977;-75
2023/04/17 03:28:04;;;;;;;;;14.00;11.00;;;;;-150.52;100.00;63513.88;2044578;27;1843015;-75
2023/04/17 03:29:15;;;;;;;;;14.25;10.25;;;;;-150.52;100.00;63513.88;2037442;28;1840959;-75
2023/04/17 03:30:26;;;;;;;;;18.50;13.50;;;;;-150.52;100.00;63513.88;2024040;27;2808596;-75
2023/04/17 03:31:37;;;;;;;;;17.00;13.00;;;;;-150.52;100.00;63513.88;2045337;27;2807942;-75
2023/04/17 03:32:48;;;;;;;;;16.00;13.50;;;;;-150.52;100.00;63513.88;2042368;27;2795090;-75
2023/04/17 03:33:59;;;;;;;;;13.00;11.00;;;;;-150.52;100.00;63513.88;2018162;27;2796064;-75
2023/04/17 03:35:10;;;;;;;;;12.00;12.00;;;;;-150.52;100.00;63513.88;2022200;27;2799220;-75
2023/04/17 03:36:21;;;;;;;;;17.00;14.00;;;;;-150.52;100.00;63513.88;2047623;27;2802753;-75
2023/04/17 03:37:32;;;;;;;;;13.00;12.00;;;;;-150.52;100.00;63513.88;2025900;27;2793981;-75
2023/04/17 03:38:44;;;;;;;;;13.00;13.00;;;;;-150.52;100.00;63513.88;2053414;28;1841925;-75
2023/04/17 03:39:54;;;;;;;;;15.50;13.50;;;;;-150.52;100.00;63513.88;2024089;27;2803829;-75
2023/04/17 03:41:05;;;;;;;;;18.50;18.00;;;;;-150.52;100.00;63513.88;2008575;28;2834972;-75
2023/04/17 03:42:16;;;;;;;;;14.00;13.00;;;;;-150.52;100.00;63513.88;2011774;27;2801331;-75
2023/04/17 03:43:27;;;;;;;;;16.00;14.00;;;;;-150.52;100.00;63513.88;2050672;27;2797182;-75
2023/04/17 03:44:39;;;;;;;;;14.80;13.80;;;;;-150.52;100.00;63513.88;2035621;27;1832558;-75
2023/04/17 03:45:53;;;;;;;;;16.67;13.50;;;;;-150.52;100.00;63513.88;2061454;27;1834621;-75
2023/04/17 03:47:06;;;;;;;;;17.33;16.83;;;;;-150.52;100.00;63513.88;2038323;27;1827936;-75
2023/04/17 03:48:17;;;;;;;;;15.50;15.00;;;;;-150.52;100.00;63513.88;2004231;27;2812779;-75
2023/04/17 03:49:28;;;;;;;;;18.00;15.00;;;;;-150.52;100.00;63513.88;2019687;27;2816977;-75
2023/04/17 03:50:41;;;;;;;;;15.50;15.33;;;;;-150.52;100.00;63513.88;2037767;28;2804397;-75
2023/04/17 03:51:52;;;;;;;;;17.00;16.00;;;;;-150.52;100.00;63513.88;2014334;28;2823556;-75
2023/04/17 03:53:03;;;;;;;;;18.00;16.00;;;;;-150.52;100.00;63513.88;2027247;27;1833629;-75
2023/04/17 03:54:13;;;;;;;;;17.00;16.50;;;;;-150.52;100.00;63513.88;2003848;27;2824181;-75
2023/04/17 03:55:24;;;;;;;;;17.50;14.50;;;;;-150.52;100.00;63513.88;2025316;27;2818996;-75
2023/04/17 03:56:35;;;;;;;;;12.00;12.00;;;;;-150.52;100.00;63513.88;2047037;27;2797158;-75
2023/04/17 03:57:49;;;;;;;;;20.67;16.00;;;;;-150.52;100.00;63513.88;2040852;28;3566918;-75
2023/04/17 03:59:03;;;;;;;;;15.00;13.00;;;;;-150.52;100.00;63513.88;2056937;27;1824228;-75
2023/04/17 04:00:15;;;;;;;;;16.50;16.50;;;;;-150.52;100.00;63513.88;2000554;28;2831508;-75
2023/04/17 04:01:28;;;;;;;;;16.67;16.17;;;;;-150.52;100.00;63513.88;2031170;27;1829461;-75
2023/04/17 04:02:39;;;;;;;;;16.00;16.00;;;;;-150.52;100.00;63513.88;2009335;27;2821115;-75
2023/04/17 04:03:50;;;;;;;;;18.00;13.00;;;;;-150.52;100.00;63513.88;2015582;28;2786003;-75
2023/04/17 04:05:01;;;;;;;;;16.00;14.50;;;;;-150.52;100.00;63513.88;2017854;27;2810667;-75
2023/04/17 04:06:19;;;;;;;;;15.86;15.86;;;;;-150.52;100.00;63513.88;2037978;27;1823205;-75
2023/04/17 04:07:29;;;;;;;;;15.50;14.00;;;;;-150.52;100.00;63513.88;2024433;28;2805486;-75
2023/04/17 04:08:41;;;;;;;;;17.20;13.80;;;;;-150.52;100.00;63513.88;2025434;28;1831497;-75
2023/04/17 04:09:51;;;;;;;;;17.00;14.00;;;;;-150.52;100.00;63513.88;2022759;27;2812734;-75
2023/04/17 04:11:03;;;;;;;;;17.50;14.50;;;;;-150.52;100.00;63513.88;2017893;28;2819131;-75
2023/04/17 04:12:14;;;;;;;;;19.50;16.50;;;;;-150.52;100.00;63513.88;2007630;28;2813768;-75
2023/04/17 04:13:25;;;;;;;;;17.00;17.00;;;;;-150.52;100.00;63513.88;2002381;27;2831720;-75
2023/04/17 04:14:37;;;;;;;;;18.67;15.67;;;;;-150.52;100.00;63513.88;2017534;27;3554491;-75
2023/04/17 04:15:48;;;;;;;;;21.50;16.00;;;;;-150.52;100.00;63513.88;2055256;27;1835767;-75
2023/04/17 04:16:59;;;;;;;;;19.67;18.00;;;;;-150.52;100.00;63513.88;2002743;27;3554826;-75
2023/04/17 04:18:11;;;;;;;;;19.00;15.67;;;;;-150.52;100.00;63513.88;2047607;27;3559608;-75
2023/04/17 04:19:23;;;;;;;;;16.60;14.60;;;;;-150.52;100.00;63513.88;2054677;27;3546029;-75
2023/04/17 04:20:35;;;;;;;;;17.33;14.33;;;;;-150.52;100.00;63513.88;2040438;27;2817005;-75
2023/04/17 04:21:45;;;;;;;;;18.00;15.50;;;;;-150.52;100.00;63513.88;2031971;27;2823250;-75
2023/04/17 04:22:58;;;;;;;;;17.33;17.00;;;;;-150.52;100.00;63513.88;2026399;27;3573124;-75
2023/04/17 04:24:12;;;;;;;;;21.33;17.67;;;;;-150.52;100.00;63513.88;2035531;27;3560681;-75
2023/04/17 04:25:25;;;;;;;;;16.60;14.60;;;;;-150.52;100.00;63513.88;2052494;27;2823473;-75
2023/04/17 04:26:42;;;;;;;;;18.17;16.67;;;;;-150.52;100.00;63513.88;2037887;27;1833614;-75
2023/04/17 04:27:55;;;;;;;;;14.67;14.00;;;;;-150.52;100.00;63513.88;2007044;27;2808603;-75
2023/04/17 04:29:06;;;;;;;;;21.67;20.67;;;;;-150.52;100.00;63513.88;2030196;27;3568986;-75
2023/04/17 04:30:19;;;;;;;;;23.40;20.60;;;;;-150.52;100.00;63513.88;2049606;27;3579787;-75
2023/04/17 04:31:30;;;;;;;;;23.33;20.00;;;;;-150.52;100.00;63513.88;2027432;27;3587734;-75
2023/04/17 04:32:44;;;;;;;;;21.33;20.00;;;;;-150.52;100.00;63513.88;2049229;27;3578353;-75
2023/04/17 04:33:58;;;;;;;;;25.86;19.86;;;;;-150.52;100.00;63513.88;2061565;27;1840412;-75
2023/04/17 04:35:10;;;;;;;;;23.33;20.00;;;;;-150.52;100.00;63513.88;2027848;27;3582555;-75
2023/04/17 04:36:23;;;;;;;;;28.00;19.67;;;;;-150.52;100.00;63513.88;2024777;27;3605426;-75
2023/04/17 04:37:34;;;;;;;;;26.00;22.00;;;;;-150.52;100.00;63513.88;2033467;27;2837765;-75
2023/04/17 04:38:49;;;;;;;;;21.67;17.67;;;;;-150.52;100.00;63513.88;2029385;27;3571058;-75
2023/04/17 04:40:09;;;;;;;;;19.00;19.00;;;;;-150.52;100.00;63513.88;2032631;27;3581478;-75
2023/04/17 04:41:24;;;;;;;;;17.20;16.80;;;;;-150.52;100.00;63513.88;2051182;27;2831475;-75
2023/04/17 04:42:34;;;;;;;;;24.00;20.00;;;;;-150.52;100.00;63513.88;2011454;27;2838759;-75
2023/04/17 04:43:46;;;;;;;;;26.00;20.80;;;;;-150.52;100.00;63513.88;2019921;28;3576257;-75
2023/04/17 04:44:58;;;;;;;;;26.00;23.00;;;;;-150.52;100.00;63513.88;2041560;27;3578391;-75
2023/04/17 04:46:10;;;;;;;;;22.33;22.33;;;;;-150.52;100.00;63513.88;2049090;27;3574253;-75
2023/04/17 04:47:22;;;;;;;;;24.33;21.00;;;;;-150.52;100.00;63513.88;2037193;27;3578364;-75
2023/04/17 04:48:34;;;;;;;;;24.40;22.80;;;;;-150.52;100.00;63513.88;2047057;27;3586699;-75
2023/04/17 04:49:46;;;;;;;;;23.00;22.33;;;;;-150.52;100.00;63513.88;2023761;27;3575240;-75
2023/04/17 04:50:57;;;;;;;;;22.67;20.33;;;;;-150.52;100.00;63513.88;2043134;27;3583596;-75
2023/04/17 04:52:09;;;;;;;;;21.67;21.67;;;;;-150.52;100.00;63513.88;2036874;28;3574225;-75
2023/04/17 04:53:21;;;;;;;;;26.33;21.00;;;;;-150.52;100.00;63513.88;2028816;27;3586685;-75
2023/04/17 04:54:33;;;;;;;;;26.80;21.60;;;;;-150.52;100.00;63513.88;2044937;27;3580463;-75
2023/04/17 04:55:45;;;;;;;;;20.33;19.00;;;;;-150.52;100.00;63513.88;2049201;27;3565838;-75
2023/04/17 04:56:57;;;;;;;;;27.67;21.33;;;;;-150.52;100.00;63513.88;2044999;27;3585696;-75
2023/04/17 04:58:09;;;;;;;;;26.80;22.00;;;;;-150.52;100.00;63513.88;2044457;28;3586651;-75
2023/04/17 04:59:21;;;;;;;;;24.67;22.33;;;;;-150.52;100.00;63513.88;2015861;27;3574197;-75
2023/04/17 05:00:33;;;;;;;;;27.00;24.33;;;;;-150.52;100.00;63513.88;2039589;27;3589888;-75
2023/04/17 05:01:45;;;;;;;;;29.00;23.00;;;;;-150.52;100.00;63513.88;2011735;28;3592339;-75
2023/04/17 05:02:57;;;;;;;;;25.60;24.40;;;;;-150.52;100.00;63513.88;2007221;28;3585673;-75
2023/04/17 05:04:08;;;;;;;;;30.00;26.33;;;;;-150.52;100.00;63513.88;2037413;28;3594489;-75
2023/04/17 05:05:20;;;;;;;;;27.00;26.00;;;;;-150.52;100.00;63513.88;2040251;27;3592412;-75
2023/04/17 05:06:32;;;;;;;;;30.40;25.80;;;;;-150.52;100.00;63513.88;2049389;27;3587691;-75
2023/04/17 05:07:44;;;;;;;;;27.67;22.33;;;;;-150.52;100.00;63513.88;2016520;27;3583542;-75
2023/04/17 05:08:56;;;;;;;;;29.20;26.40;;;;;-150.52;100.00;63513.88;2044999;27;3601301;-75
2023/04/17 05:10:08;;;;;;;;;24.33;22.67;;;;;-150.52;100.00;63513.88;2024346;27;3585675;-75
2023/04/17 05:11:20;;;;;;;;;29.00;23.33;;;;;-150.52;100.00;63513.88;2032979;28;3591930;-75
2023/04/17 05:12:33;;;;;;;;;25.00;22.20;;;;;-150.52;100.00;63513.88;2028383;28;3585604;-75
2023/04/17 05:13:45;;;;;;;;;29.00;24.67;;;;;-150.52;100.00;63513.88;2023133;27;3580397;-75
2023/04/17 05:14:57;;;;;;;;;30.33;25.00;;;;;-150.52;100.00;63513.88;2047794;27;3596072;-75